Time;durP1;ratioP1;P1;durP2;ratioP2;P2;SDS_P1;SDS_P2;PMS_P1;PMS_P2;Temp;Humidity;BMP_temperature;BMP_pressure;BME280_temperature;BME280_humidity;BME280_pressure;Samples;Min_cycle;Max_cycle;Signal;HPM_P1;HPM_P2
2022/03/10 00:00:46;;;;;;;16.40;8.10;;;4.90;63.20;;;;;;4165805;28;20081;-85
2022/03/10 00:02:47;;;;;;;12.43;6.97;;;4.70;63.70;;;;;;4149997;28;20439;-85
2022/03/10 00:04:48;;;;;;;14.23;7.15;;;4.20;64.00;;;;;;4167167;28;20052;-85
2022/03/10 00:06:49;;;;;;;14.07;8.00;;;5.90;65.40;;;;;;4150049;28;20550;-86
2022/03/10 00:08:49;;;;;;;14.75;7.97;;;4.50;65.40;;;;;;4165834;28;20037;-84
2022/03/10 00:10:51;;;;;;;14.13;8.05;;;5.60;66.20;;;;;;4182543;28;20089;-86
2022/03/10 00:12:53;;;;;;;16.58;8.52;;;4.60;66.40;;;;;;4149639;28;20057;-85
2022/03/10 00:14:54;;;;;;;17.45;8.93;;;4.30;66.60;;;;;;4167365;28;20041;-85
2022/03/10 00:16:56;;;;;;;15.23;7.85;;;5.60;67.70;;;;;;4165673;28;20824;-85
2022/03/10 00:18:57;;;;;;;14.55;7.68;;;4.30;67.40;;;;;;4167034;28;20033;-84
2022/03/10 00:20:58;;;;;;;14.57;7.68;;;4.10;67.80;;;;;;4167252;28;20380;-84
2022/03/10 00:22:59;;;;;;;13.73;7.20;;;4.00;68.40;;;;;;4167633;28;20038;-85
2022/03/10 00:25:00;;;;;;;17.73;7.80;;;4.10;68.70;;;;;;4166885;28;20143;-84
2022/03/10 00:27:00;;;;;;;18.02;9.15;;;4.00;69.00;;;;;;4165908;28;20404;-84
2022/03/10 00:29:01;;;;;;;15.98;8.07;;;4.50;69.40;;;;;;4167337;28;20038;-84
2022/03/10 00:31:02;;;;;;;14.65;7.18;;;3.90;69.30;;;;;;4150216;28;20046;-85
2022/03/10 00:33:03;;;;;;;14.90;7.72;;;4.70;70.00;;;;;;4165883;28;20107;-85
2022/03/10 00:35:04;;;;;;;13.50;7.18;;;3.90;69.80;;;;;;4166217;28;20053;-85
2022/03/10 00:37:06;;;;;;;16.10;7.38;;;3.80;70.30;;;;;;4165732;28;20078;-84
2022/03/10 00:39:06;;;;;;;15.73;8.07;;;3.40;70.10;;;;;;4165713;28;20107;-84
2022/03/10 00:41:09;;;;;;;15.70;8.43;;;3.80;71.50;;;;;;4148968;28;20120;-84
2022/03/10 00:43:13;;;;;;;19.38;8.15;;;4.60;72.20;;;;;;4165784;28;20052;-84
2022/03/10 00:45:16;;;;;;;14.43;7.70;;;3.70;72.00;;;;;;4166963;28;20048;-84
2022/03/10 00:47:19;;;;;;;14.95;7.93;;;3.60;72.30;;;;;;4166855;28;20130;-84
2022/03/10 00:49:19;;;;;;;15.55;8.18;;;3.60;72.60;;;;;;4166983;28;20124;-85
2022/03/10 00:51:20;;;;;;;17.85;7.70;;;3.90;73.00;;;;;;4167180;28;20037;-85
2022/03/10 00:53:22;;;;;;;13.80;7.82;;;4.90;75.30;;;;;;4167343;28;20077;-85
2022/03/10 00:55:23;;;;;;;16.08;8.77;;;4.20;74.80;;;;;;4166640;28;20042;-85
2022/03/10 00:57:24;;;;;;;15.02;7.95;;;3.70;75.50;;;;;;4165763;28;20048;-84
2022/03/10 00:59:25;;;;;;;16.70;8.40;;;4.10;76.30;;;;;;4148709;28;20049;-85
2022/03/10 01:01:26;;;;;;;16.13;7.28;;;4.60;76.90;;;;;;4149598;28;20057;-84
2022/03/10 01:03:27;;;;;;;16.05;8.50;;;3.70;76.50;;;;;;4167294;28;20129;-85
2022/03/10 01:05:28;;;;;;;14.70;8.38;;;3.10;77.70;;;;;;4167127;28;20116;-85
2022/03/10 01:07:30;;;;;;;14.05;7.38;;;2.20;77.20;;;;;;4167378;28;20486;-85
2022/03/10 01:09:32;;;;;;;16.60;8.40;;;3.70;78.90;;;;;;4169158;28;20057;-85
2022/03/10 01:11:33;;;;;;;15.95;8.43;;;3.20;78.90;;;;;;4170018;28;20041;-85
2022/03/10 01:13:34;;;;;;;13.75;7.60;;;3.90;79.80;;;;;;4169862;28;20037;-86
2022/03/10 01:15:35;;;;;;;17.40;8.57;;;4.20;80.10;;;;;;4167013;28;20156;-85
2022/03/10 01:17:36;;;;;;;20.75;8.52;;;2.30;79.90;;;;;;4169353;28;20048;-86
2022/03/10 01:19:37;;;;;;;15.20;8.02;;;3.00;79.70;;;;;;4170071;28;20037;-86
2022/03/10 01:21:39;;;;;;;17.40;8.10;;;2.80;79.50;;;;;;4168724;28;20099;-86
2022/03/10 01:23:41;;;;;;;20.23;8.45;;;4.40;81.80;;;;;;4151809;28;20054;-86
2022/03/10 01:25:41;;;;;;;14.75;7.70;;;3.10;80.20;;;;;;4150612;28;20063;-86
2022/03/10 01:27:43;;;;;;;13.98;7.28;;;3.90;81.60;;;;;;4150045;28;20061;-86
2022/03/10 01:29:45;;;;;;;14.00;7.55;;;4.40;82.10;;;;;;4166494;28;20120;-86
2022/03/10 01:31:46;;;;;;;18.40;9.65;;;3.20;81.40;;;;;;4166147;28;20049;-86
2022/03/10 01:33:47;;;;;;;15.15;8.00;;;3.00;81.50;;;;;;4148537;28;20135;-85
2022/03/10 01:35:47;;;;;;;21.42;8.32;;;4.30;81.70;;;;;;4165313;28;20068;-84
2022/03/10 01:37:48;;;;;;;16.15;8.88;;;4.10;82.50;;;;;;4166025;28;20038;-85
2022/03/10 01:39:49;;;;;;;15.40;8.50;;;3.80;82.40;;;;;;4149571;28;20488;-85
2022/03/10 01:41:50;;;;;;;16.92;8.32;;;2.80;82.10;;;;;;4166490;28;20102;-85
2022/03/10 01:44:05;;;;;;;15.23;7.88;;;3.60;82.80;;;;;;4165972;28;20048;-84
2022/03/10 01:46:06;;;;;;;15.95;7.97;;;3.80;84.80;;;;;;4165416;28;20438;-84
2022/03/10 01:48:08;;;;;;;16.23;8.32;;;3.20;83.30;;;;;;4164694;28;20081;-84
2022/03/10 01:50:12;;;;;;;18.75;7.85;;;3.00;84.00;;;;;;4165954;28;20136;-84
2022/03/10 01:52:14;;;;;;;16.88;8.10;;;4.30;85.00;;;;;;4169067;28;20184;-85
2022/03/10 01:54:15;;;;;;;15.20;7.25;;;2.70;85.10;;;;;;4166412;28;20041;-85
2022/03/10 01:56:16;;;;;;;15.20;8.02;;;3.40;85.50;;;;;;4166138;28;20049;-85
2022/03/10 01:58:17;;;;;;;14.18;7.80;;;3.80;85.80;;;;;;4167455;28;20049;-84
2022/03/10 02:00:18;;;;;;;18.58;8.35;;;3.50;86.30;;;;;;4166683;28;20061;-85
2022/03/10 02:02:19;;;;;;;18.70;8.45;;;2.80;85.60;;;;;;4166642;28;20045;-85
2022/03/10 02:04:21;;;;;;;16.92;8.70;;;3.40;85.90;;;;;;4165381;28;20048;-84
2022/03/10 02:06:22;;;;;;;14.23;8.27;;;2.90;85.30;;;;;;4166194;28;20091;-85
2022/03/10 02:10:42;;;;;;;20.38;7.65;;;2.60;85.40;;;;;;4164698;28;20061;-85
2022/03/10 02:12:50;;;;;;;17.48;8.20;;;2.40;85.50;;;;;;4164530;28;20077;-85
2022/03/10 02:17:19;;;;;;;16.98;8.27;;;3.70;85.60;;;;;;4166790;28;20169;-86
2022/03/10 02:19:21;;;;;;;17.67;8.48;;;2.50;84.90;;;;;;4149634;28;20112;-85
2022/03/10 02:21:23;;;;;;;18.60;8.65;;;2.50;84.90;;;;;;4165784;28;20048;-86
2022/03/10 02:23:24;;;;;;;22.05;8.00;;;2.50;84.80;;;;;;4148543;28;20050;-85
2022/03/10 02:25:27;;;;;;;15.68;7.82;;;2.50;84.70;;;;;;4165841;28;20396;-85
2022/03/10 02:27:28;;;;;;;16.17;8.88;;;2.60;84.50;;;;;;4181226;28;20125;-85
2022/03/10 02:29:30;;;;;;;19.67;7.82;;;2.50;84.70;;;;;;4148322;28;20124;-85
2022/03/10 02:31:31;;;;;;;15.48;7.90;;;3.60;85.50;;;;;;4166003;28;20052;-85
2022/03/10 02:33:33;;;;;;;17.45;7.45;;;2.60;84.80;;;;;;4147409;28;20050;-86
2022/03/10 02:35:34;;;;;;;14.45;7.63;;;3.70;84.90;;;;;;4164513;28;20045;-85
2022/03/10 02:37:35;;;;;;;17.52;8.30;;;2.50;84.50;;;;;;4165206;28;20051;-85
2022/03/10 02:39:36;;;;;;;17.08;8.45;;;2.90;84.70;;;;;;4147415;28;20056;-85
2022/03/10 02:41:38;;;;;;;17.30;8.63;;;2.50;84.10;;;;;;4165118;28;20042;-85
2022/03/10 02:43:39;;;;;;;16.15;7.95;;;2.90;84.70;;;;;;4147494;28;20582;-85
2022/03/10 02:45:40;;;;;;;19.55;8.50;;;2.40;84.00;;;;;;4147324;28;20124;-84
2022/03/10 02:47:41;;;;;;;15.63;7.97;;;2.60;84.10;;;;;;4164709;28;20038;-85
2022/03/10 02:49:43;;;;;;;18.42;8.73;;;1.70;83.70;;;;;;4164647;28;20041;-84
2022/03/10 02:51:45;;;;;;;15.13;7.68;;;2.50;84.30;;;;;;4147408;28;20054;-85
2022/03/10 02:53:47;;;;;;;14.95;7.32;;;2.70;84.10;;;;;;4164051;28;20063;-85
2022/03/10 02:55:47;;;;;;;16.52;7.75;;;3.40;84.50;;;;;;4164050;28;20439;-86
2022/03/10 02:57:49;;;;;;;18.10;8.63;;;3.40;84.70;;;;;;4164743;28;20045;-86
2022/03/10 02:59:50;;;;;;;16.65;7.82;;;3.00;84.60;;;;;;4163134;28;20045;-85
2022/03/10 03:01:51;;;;;;;19.15;8.40;;;2.90;84.30;;;;;;4147546;28;20123;-85
2022/03/10 03:03:51;;;;;;;15.45;8.48;;;3.10;84.80;;;;;;4147258;28;20078;-85
2022/03/10 03:05:52;;;;;;;16.83;9.07;;;3.60;84.50;;;;;;4163869;28;20060;-85
2022/03/10 03:07:56;;;;;;;19.35;8.15;;;3.30;84.20;;;;;;4164470;28;20099;-85
2022/03/10 03:09:58;;;;;;;16.92;7.55;;;2.50;83.90;;;;;;4162943;28;20053;-86
2022/03/10 03:12:03;;;;;;;16.65;8.20;;;3.20;83.80;;;;;;4165553;28;20053;-84
2022/03/10 03:14:04;;;;;;;17.55;8.48;;;2.40;83.50;;;;;;4164222;28;20076;-86
2022/03/10 03:16:06;;;;;;;16.77;8.30;;;2.50;83.60;;;;;;4165106;28;20059;-86
2022/03/10 03:18:07;;;;;;;18.92;8.27;;;3.60;84.20;;;;;;4164238;28;20164;-85
2022/03/10 03:20:14;;;;;;;18.15;7.57;;;3.30;84.30;;;;;;4163604;28;20053;-86
2022/03/10 03:22:14;;;;;;;16.98;7.72;;;2.40;83.20;;;;;;4165422;28;20045;-85
2022/03/10 03:24:15;;;;;;;21.00;7.53;;;2.60;83.20;;;;;;4163623;28;20050;-85
2022/03/10 03:26:16;;;;;;;18.58;8.02;;;3.50;83.60;;;;;;4147537;28;20056;-85
2022/03/10 03:28:19;;;;;;;18.42;8.43;;;3.50;83.30;;;;;;4164483;28;20046;-85
2022/03/10 03:30:20;;;;;;;16.70;8.05;;;3.40;83.10;;;;;;4174091;28;20041;-85
2022/03/10 03:32:21;;;;;;;20.90;8.27;;;3.80;83.60;;;;;;4141354;28;1144033;-85
2022/03/10 03:34:23;;;;;;;15.30;7.93;;;3.00;82.70;;;;;;4164623;28;20053;-85
2022/03/10 03:36:25;;;;;;;21.98;9.52;;;1.70;82.00;;;;;;4163930;28;20088;-85
2022/03/10 03:38:26;;;;;;;22.65;7.65;;;2.40;82.70;;;;;;4163396;28;20054;-86
2022/03/10 03:40:26;;;;;;;16.13;7.25;;;2.40;82.40;;;;;;4182166;28;20124;-85
2022/03/10 03:42:32;;;;;;;17.00;7.25;;;3.70;83.00;;;;;;4180971;28;20049;-85
2022/03/10 03:44:34;;;;;;;18.33;7.93;;;3.50;82.70;;;;;;4163988;28;20050;-85
2022/03/10 03:46:37;;;;;;;14.80;7.72;;;2.40;82.00;;;;;;4181637;28;20041;-86
2022/03/10 03:48:38;;;;;;;16.15;7.70;;;3.40;82.20;;;;;;4163454;28;20054;-85
2022/03/10 03:50:38;;;;;;;16.48;8.15;;;2.90;81.80;;;;;;4163825;28;20084;-86
2022/03/10 03:52:40;;;;;;;15.52;8.73;;;3.80;82.30;;;;;;4163959;28;20053;-85
2022/03/10 03:54:42;;;;;;;16.70;8.15;;;3.20;81.90;;;;;;4162221;28;20585;-86
2022/03/10 03:56:44;;;;;;;16.48;8.52;;;2.80;81.70;;;;;;4175849;28;20037;-85
2022/03/10 03:58:46;;;;;;;17.83;8.00;;;2.70;82.00;;;;;;4163716;28;20048;-85
2022/03/10 04:00:47;;;;;;;14.82;7.60;;;3.80;82.80;;;;;;4180223;28;20099;-85
2022/03/10 04:02:49;;;;;;;15.95;8.23;;;2.40;81.60;;;;;;4180352;28;20048;-85
2022/03/10 04:04:50;;;;;;;17.55;8.85;;;2.10;81.40;;;;;;4180036;28;20051;-85
2022/03/10 04:06:52;;;;;;;16.80;7.35;;;3.20;82.10;;;;;;4179892;28;20376;-85
2022/03/10 04:08:53;;;;;;;14.75;7.40;;;2.60;82.10;;;;;;4180833;28;20052;-85
2022/03/10 04:10:55;;;;;;;19.15;7.85;;;3.20;82.20;;;;;;4181004;28;20483;-85
2022/03/10 04:12:55;;;;;;;13.85;6.95;;;3.60;82.90;;;;;;4179847;28;20103;-85
2022/03/10 04:14:58;;;;;;;15.25;7.80;;;3.50;82.40;;;;;;4181238;28;20395;-86
2022/03/10 04:17:00;;;;;;;19.05;8.52;;;2.30;81.60;;;;;;4180154;28;20084;-85
2022/03/10 04:19:01;;;;;;;16.67;7.20;;;3.00;81.90;;;;;;4179348;28;20139;-85
2022/03/10 04:21:04;;;;;;;14.15;7.30;;;3.70;82.00;;;;;;4182552;28;20128;-84
2022/03/10 04:23:04;;;;;;;16.58;8.07;;;2.40;81.40;;;;;;4199756;28;20053;-85
2022/03/10 04:25:08;;;;;;;15.52;7.88;;;3.20;81.90;;;;;;4183256;28;20037;-84
2022/03/10 04:27:10;;;;;;;19.05;8.85;;;2.20;82.00;;;;;;4184966;28;20057;-86
2022/03/10 04:29:11;;;;;;;13.88;7.13;;;2.90;82.20;;;;;;4184178;28;20487;-86
2022/03/10 04:31:13;;;;;;;12.73;6.88;;;3.30;82.30;;;;;;4183976;28;20120;-85
2022/03/10 04:33:13;;;;;;;16.85;7.90;;;2.10;82.10;;;;;;4184377;28;20053;-85
2022/03/10 04:35:17;;;;;;;16.13;7.80;;;3.30;83.10;;;;;;4183748;28;20071;-85
2022/03/10 04:37:19;;;;;;;17.35;8.50;;;2.00;82.20;;;;;;4185116;28;20041;-85
2022/03/10 04:39:20;;;;;;;16.08;8.13;;;3.30;83.30;;;;;;4183562;28;20048;-84
2022/03/10 04:41:20;;;;;;;15.13;7.65;;;2.30;83.20;;;;;;4186013;28;20037;-84
2022/03/10 04:43:21;;;;;;;14.50;8.20;;;1.70;83.10;;;;;;4183345;28;20037;-84
2022/03/10 04:45:22;;;;;;;15.75;7.95;;;2.50;84.40;;;;;;4184148;28;20041;-84
2022/03/10 04:47:23;;;;;;;19.60;8.77;;;2.40;85.00;;;;;;4187210;28;20391;-85
2022/03/10 04:49:25;;;;;;;16.58;7.70;;;2.70;85.20;;;;;;4187310;28;20048;-85
2022/03/10 04:51:26;;;;;;;16.13;7.82;;;2.90;85.60;;;;;;4171030;28;20128;-85
2022/03/10 04:53:27;;;;;;;19.63;8.68;;;2.90;85.60;;;;;;4187944;28;20088;-85
2022/03/10 04:55:29;;;;;;;16.52;7.82;;;2.60;85.70;;;;;;4188027;28;20411;-85
2022/03/10 04:57:30;;;;;;;18.70;7.65;;;1.60;85.10;;;;;;4170231;28;20053;-84
2022/03/10 04:59:32;;;;;;;16.20;7.70;;;2.80;86.10;;;;;;4184961;28;20059;-85
2022/03/10 05:01:33;;;;;;;15.85;7.82;;;2.30;86.40;;;;;;4185471;28;20055;-85
2022/03/10 05:03:34;;;;;;;17.00;7.07;;;2.00;86.00;;;;;;4185577;28;20116;-86
2022/03/10 05:05:35;;;;;;;17.35;7.72;;;1.30;85.80;;;;;;4185318;28;20469;-85
2022/03/10 05:07:36;;;;;;;15.57;7.95;;;;;;;;;;4168539;28;20049;-86
2022/03/10 05:09:37;;;;;;;16.50;8.18;;;1.50;86.00;;;;;;4167792;28;20045;-85
2022/03/10 05:11:38;;;;;;;18.95;8.18;;;1.50;87.00;;;;;;4183997;28;20048;-85
2022/03/10 05:13:40;;;;;;;17.35;7.97;;;1.40;87.50;;;;;;4186646;28;20123;-85
2022/03/10 05:15:41;;;;;;;16.92;7.88;;;2.10;87.50;;;;;;4188345;28;20076;-85
2022/03/10 05:17:42;;;;;;;16.38;8.23;;;1.20;86.90;;;;;;4186821;28;20055;-85
2022/03/10 05:19:43;;;;;;;15.32;7.70;;;1.60;87.10;;;;;;4186245;28;20570;-84
2022/03/10 05:21:45;;;;;;;15.73;8.20;;;2.10;87.40;;;;;;4168905;28;20108;-85
2022/03/10 05:23:46;;;;;;;17.20;8.02;;;2.20;87.30;;;;;;4185164;28;20115;-85
2022/03/10 05:25:48;;;;;;;18.13;8.23;;;1.90;87.20;;;;;;4183687;28;20060;-85
2022/03/10 05:27:50;;;;;;;18.48;8.05;;;2.30;87.30;;;;;;4167974;28;20053;-85
2022/03/10 05:29:50;;;;;;;17.33;7.93;;;2.60;87.40;;;;;;4167896;28;20106;-85
2022/03/10 05:31:51;;;;;;;17.48;8.00;;;2.70;87.60;;;;;;4186679;28;20080;-86
2022/03/10 05:33:53;;;;;;;15.38;7.57;;;2.70;86.90;;;;;;4163890;28;20053;-85
2022/03/10 05:35:55;;;;;;;18.13;7.75;;;3.00;86.90;;;;;;4157363;28;20045;-84
2022/03/10 05:37:57;;;;;;;16.23;7.25;;;2.80;86.90;;;;;;4180274;28;20049;-84
2022/03/10 05:39:57;;;;;;;18.38;7.45;;;2.40;86.50;;;;;;4170003;28;20566;-84
2022/03/10 05:42:00;;;;;;;16.90;7.53;;;3.10;86.80;;;;;;4185588;28;20048;-84
2022/03/10 05:44:02;;;;;;;15.60;7.20;;;2.90;86.60;;;;;;4183810;28;20542;-85
2022/03/10 05:46:04;;;;;;;15.80;7.32;;;1.60;85.50;;;;;;4183711;28;20412;-84
2022/03/10 05:48:06;;;;;;;16.63;8.63;;;1.60;85.50;;;;;;4184696;28;20083;-85
2022/03/10 05:50:08;;;;;;;14.98;7.13;;;1.70;85.40;;;;;;4184357;28;20449;-85
2022/03/10 05:52:09;;;;;;;18.17;7.72;;;1.60;85.00;;;;;;4184804;28;20127;-85
2022/03/10 05:54:10;;;;;;;18.40;8.27;;;2.40;85.90;;;;;;4183373;28;20048;-85
2022/03/10 05:56:12;;;;;;;18.13;7.75;;;1.70;85.60;;;;;;4166799;28;20053;-85
2022/03/10 05:58:13;;;;;;;18.48;7.95;;;1.70;85.60;;;;;;4166660;28;20144;-85
2022/03/10 06:00:16;;;;;;;15.25;8.13;;;2.10;85.20;;;;;;4166547;28;20415;-85
2022/03/10 06:02:18;;;;;;;17.42;7.03;;;1.70;84.90;;;;;;4185059;28;20035;-85
2022/03/10 06:04:19;;;;;;;13.75;7.18;;;1.50;85.00;;;;;;4184610;28;20120;-84
2022/03/10 06:06:20;;;;;;;15.30;7.88;;;2.30;85.30;;;;;;4166427;28;20092;-84
2022/03/10 06:08:22;;;;;;;12.55;6.80;;;2.90;85.60;;;;;;4166735;28;20053;-84
2022/03/10 06:10:24;;;;;;;14.68;7.50;;;3.10;85.10;;;;;;4167114;28;20083;-84
2022/03/10 06:12:27;;;;;;;20.13;7.70;;;1.80;84.40;;;;;;4184530;28;20037;-84
2022/03/10 06:14:28;;;;;;;16.05;8.45;;;2.40;84.00;;;;;;4185281;28;20051;-85
2022/03/10 06:16:29;;;;;;;15.73;6.75;;;1.80;84.20;;;;;;4184214;28;20068;-84
2022/03/10 06:18:31;;;;;;;14.40;7.03;;;1.90;83.50;;;;;;4183348;28;20504;-85
2022/03/10 06:20:33;;;;;;;17.42;7.80;;;3.10;84.00;;;;;;4184077;28;20072;-85
2022/03/10 06:22:35;;;;;;;13.80;6.93;;;1.90;84.10;;;;;;4166341;28;20045;-84
2022/03/10 06:24:37;;;;;;;15.18;7.38;;;3.60;84.10;;;;;;4182774;28;20478;-84
2022/03/10 06:26:38;;;;;;;18.60;8.55;;;1.90;83.20;;;;;;4183717;28;20116;-85
2022/03/10 06:28:39;;;;;;;15.82;7.03;;;2.00;83.10;;;;;;4182748;28;20044;-85
2022/03/10 06:30:39;;;;;;;14.70;7.75;;;3.50;83.80;;;;;;4165222;28;20096;-84
2022/03/10 06:32:40;;;;;;;18.95;8.00;;;2.80;83.40;;;;;;4183271;28;20056;-84
2022/03/10 06:34:42;;;;;;;16.25;7.32;;;2.30;83.20;;;;;;4165788;28;20037;-85
2022/03/10 06:36:43;;;;;;;19.77;7.90;;;2.00;83.00;;;;;;4167993;28;20045;-85
2022/03/10 06:38:46;;;;;;;16.50;8.13;;;2.80;84.00;;;;;;4185657;28;20394;-85
2022/03/10 06:40:47;;;;;;;16.58;7.30;;;2.50;83.70;;;;;;4185592;28;20084;-85
2022/03/10 06:42:53;;;;;;;22.02;8.10;;;3.20;83.90;;;;;;4184543;28;20049;-85
2022/03/10 06:44:54;;;;;;;15.25;7.68;;;2.10;83.50;;;;;;4183204;28;20048;-84
2022/03/10 06:46:55;;;;;;;17.33;8.00;;;2.70;83.70;;;;;;4183423;28;20128;-85
2022/03/10 06:48:56;;;;;;;15.48;7.18;;;2.70;83.00;;;;;;4184542;28;20435;-85
2022/03/10 06:50:56;;;;;;;14.18;7.53;;;3.10;83.50;;;;;;4184987;28;20037;-85
2022/03/10 06:52:57;;;;;;;17.48;8.00;;;3.70;83.50;;;;;;4168256;28;20566;-85
2022/03/10 06:54:58;;;;;;;21.88;9.48;;;2.90;83.10;;;;;;4167635;28;20467;-85
2022/03/10 06:56:59;;;;;;;22.85;8.82;;;3.40;83.50;;;;;;4165788;28;20053;-85
2022/03/10 06:59:01;;;;;;;17.80;7.60;;;3.50;83.10;;;;;;4165769;28;20127;-85
2022/03/10 07:01:03;;;;;;;16.50;8.10;;;3.90;82.90;;;;;;4148949;28;20049;-85
2022/03/10 07:03:06;;;;;;;14.50;8.07;;;2.80;82.30;;;;;;4164870;28;20054;-85
2022/03/10 07:05:08;;;;;;;19.20;7.90;;;2.60;81.40;;;;;;4165429;28;20396;-85
2022/03/10 07:07:11;;;;;;;15.30;8.23;;;2.80;81.10;;;;;;4164488;28;20103;-84
2022/03/10 07:09:12;;;;;;;17.27;7.40;;;3.30;81.00;;;;;;4175632;28;20128;-84
2022/03/10 07:11:14;;;;;;;18.25;7.53;;;2.20;80.20;;;;;;4181768;28;20036;-85
2022/03/10 07:13:16;;;;;;;17.80;8.13;;;3.60;80.50;;;;;;4164786;28;20053;-85
2022/03/10 07:15:17;;;;;;;22.00;9.68;;;4.60;80.50;;;;;;4182279;28;20053;-85
2022/03/10 07:17:17;;;;;;;17.67;8.35;;;4.20;78.90;;;;;;4165568;28;20158;-85
2022/03/10 07:19:18;;;;;;;16.75;8.35;;;4.20;78.10;;;;;;4161828;28;20077;-84
2022/03/10 07:21:21;;;;;;;17.23;7.70;;;4.10;76.60;;;;;;4163963;28;20053;-83
2022/03/10 07:23:24;;;;;;;16.98;7.93;;;5.40;76.10;;;;;;4164937;28;20049;-85
2022/03/10 07:25:27;;;;;;;17.15;7.72;;;5.50;75.30;;;;;;4164505;28;20046;-84
2022/03/10 07:27:28;;;;;;;15.85;7.68;;;3.30;73.70;;;;;;4174921;28;20504;-85
2022/03/10 07:29:29;;;;;;;16.02;7.40;;;4.70;74.60;;;;;;4163428;28;20083;-85
2022/03/10 07:31:31;;;;;;;21.63;7.85;;;4.70;73.70;;;;;;4178732;28;20127;-85
2022/03/10 07:33:33;;;;;;;20.95;8.18;;;4.60;73.30;;;;;;4180913;28;20507;-85
2022/03/10 07:35:34;;;;;;;14.45;7.45;;;6.20;74.40;;;;;;4180132;28;20123;-85
2022/03/10 07:37:34;;;;;;;17.80;8.13;;;4.90;73.10;;;;;;4180791;28;20045;-86
2022/03/10 07:39:37;;;;;;;14.98;7.70;;;6.00;72.50;;;;;;4181335;28;20037;-85
2022/03/10 07:41:38;;;;;;;24.42;8.45;;;5.40;71.50;;;;;;4163454;28;20049;-85
2022/03/10 07:43:39;;;;;;;16.05;7.95;;;5.70;70.90;;;;;;4183314;28;20086;-85
2022/03/10 07:45:40;;;;;;;14.90;7.57;;;6.80;70.60;;;;;;4186841;28;20116;-85
2022/03/10 07:47:42;;;;;;;15.23;7.50;;;6.60;70.20;;;;;;4187889;28;20490;-84
2022/03/10 07:49:42;;;;;;;13.13;6.85;;;6.90;69.60;;;;;;4186346;28;20530;-85
2022/03/10 07:51:44;;;;;;;15.05;7.45;;;6.70;68.30;;;;;;4183020;28;20056;-85
2022/03/10 07:53:45;;;;;;;18.25;8.48;;;;;;;;;;4183019;28;20106;-85
2022/03/10 07:55:46;;;;;;;16.63;8.27;;;;;;;;;;4182889;28;20044;-86
2022/03/10 07:57:49;;;;;;;18.45;7.00;;;;;;;;;;4183155;28;20464;-84
2022/03/10 07:59:51;;;;;;;14.10;7.55;;;;;;;;;;4184229;28;20371;-85
2022/03/10 08:01:53;;;;;;;16.98;7.20;;;;;;;;;;4183222;28;20445;-85
2022/03/10 08:03:54;;;;;;;19.13;8.43;;;;;;;;;;4182309;28;20045;-85
2022/03/10 08:05:55;;;;;;;13.13;7.80;;;;;;;;;;4183228;28;20387;-85
2022/03/10 08:07:56;;;;;;;14.75;8.05;;;;;;;;;;4181306;28;20479;-84
2022/03/10 08:09:57;;;;;;;20.13;8.32;;;;;;;;;;4181979;28;20095;-84
2022/03/10 08:11:58;;;;;;;13.38;7.55;;;;;;;;;;4181928;28;20052;-85
2022/03/10 08:13:59;;;;;;;14.18;7.47;;;;;;;;;;4183279;28;20110;-85
2022/03/10 08:16:01;;;;;;;17.98;8.65;;;;;;;;;;4165621;28;20053;-85
2022/03/10 08:18:03;;;;;;;16.15;8.57;;;;;;;;;;4181891;28;20497;-86
2022/03/10 08:20:04;;;;;;;13.65;7.20;;;;;;;;;;4183171;28;20120;-85
2022/03/10 08:22:08;;;;;;;18.33;8.73;;;;;;;;;;4182606;28;20056;-85
2022/03/10 08:24:10;;;;;;;18.05;7.78;;;;;;;;;;4183042;28;20051;-84
2022/03/10 08:26:11;;;;;;;17.08;8.05;;;;;;;;;;4182952;28;20056;-85
2022/03/10 08:28:13;;;;;;;13.40;8.10;;;;;;;;;;4182045;28;20053;-85
2022/03/10 08:30:15;;;;;;;16.92;8.15;;;;;;;;;;4183303;28;20136;-85
2022/03/10 08:32:16;;;;;;;14.77;7.85;;;;;;;;;;4182943;28;20104;-84
2022/03/10 08:34:17;;;;;;;13.77;8.43;;;;;;;;;;4179729;28;20040;-85
2022/03/10 08:36:19;;;;;;;14.32;7.97;;;;;;;;;;4183190;28;20057;-84
2022/03/10 08:38:20;;;;;;;14.75;8.35;;;;;;;;;;4166708;28;20865;-85
2022/03/10 08:40:21;;;;;;;17.05;8.57;;;;;;;;;;4178185;28;20049;-85
2022/03/10 08:42:22;;;;;;;14.20;7.22;;;;;;;;;;4182336;28;20435;-84
2022/03/10 08:44:24;;;;;;;15.70;8.52;;;;;;;;;;4181752;28;20049;-84
2022/03/10 08:46:25;;;;;;;16.42;7.82;;;;;;;;;;4183659;28;20049;-83
2022/03/10 08:48:26;;;;;;;16.90;8.13;;;;;;;;;;4183682;28;20398;-84
2022/03/10 08:50:28;;;;;;;14.88;9.02;;;;;;;;;;4184757;28;20049;-84
2022/03/10 08:52:29;;;;;;;16.88;8.43;;;;;;;;;;4183610;28;20100;-85
2022/03/10 08:54:31;;;;;;;14.02;8.38;;;;;;;;;;4174926;28;20132;-85
2022/03/10 08:56:32;;;;;;;14.90;8.45;;;;;;;;;;4180393;28;20048;-85
2022/03/10 08:58:33;;;;;;;15.55;7.88;;;;;;;;;;4183665;28;20052;-86
2022/03/10 09:00:34;;;;;;;14.07;7.85;;;;;;;;;;4183373;28;20053;-85
2022/03/10 09:02:36;;;;;;;15.57;8.63;;;;;;;;;;4182289;28;20380;-84
2022/03/10 09:04:37;;;;;;;14.68;9.07;;;;;;;;;;4182601;28;20040;-85
2022/03/10 09:06:38;;;;;;;15.50;8.10;;;;;;;;;;4182333;28;20147;-85
2022/03/10 09:08:40;;;;;;;13.88;7.95;;;;;;;;;;4182076;28;20041;-85
2022/03/10 09:10:41;;;;;;;17.40;8.75;;;;;;;;;;4171617;28;20057;-85
2022/03/10 09:12:42;;;;;;;15.20;8.23;;;;;;;;;;4177128;28;20072;-85
2022/03/10 09:14:43;;;;;;;18.20;8.00;;;;;;;;;;4166463;28;20103;-86
2022/03/10 09:16:45;;;;;;;14.35;8.05;;;;;;;;;;4166788;28;20136;-85
2022/03/10 09:18:46;;;;;;;12.40;8.23;;;;;;;;;;4180708;28;20041;-86
2022/03/10 09:20:47;;;;;;;17.13;8.15;;;;;;;;;;4182935;28;20045;-85
2022/03/10 09:22:49;;;;;;;16.20;7.28;;;;;;;;;;4183276;28;20510;-84
2022/03/10 09:24:50;;;;;;;14.50;7.93;;;;;;;;;;4179304;28;20454;-86
2022/03/10 09:26:51;;;;;;;16.75;8.30;;;;;;;;;;4174539;28;20048;-85
2022/03/10 09:28:52;;;;;;;14.65;8.60;;;;;;;;;;4177132;28;20087;-85
2022/03/10 09:30:53;;;;;;;15.38;7.82;;;;;;;;;;4181290;28;20083;-85
2022/03/10 09:32:57;;;;;;;10.95;7.28;;;;;;;;;;4182518;28;20065;-85
2022/03/10 09:34:58;;;;;;;13.95;8.48;;;;;;;;;;4180468;28;20078;-85
2022/03/10 09:36:59;;;;;;;12.27;8.30;;;;;;;;;;4181667;28;20045;-85
2022/03/10 09:39:01;;;;;;;13.25;7.75;;;;;;;;;;4183606;28;20088;-85
2022/03/10 09:41:02;;;;;;;16.08;8.95;;;;;;;;;;4182700;28;20425;-85
2022/03/10 09:43:03;;;;;;;16.55;8.25;;;;;;;;;;4180576;28;20049;-85
2022/03/10 09:45:07;;;;;;;14.15;7.80;;;;;;;;;;4180695;28;20049;-85
2022/03/10 09:47:09;;;;;;;16.77;7.45;;;;;;;;;;4180768;28;20049;-85
2022/03/10 09:49:10;;;;;;;16.02;7.22;;;;;;;;;;4183693;28;20685;-85
2022/03/10 09:51:11;;;;;;;12.18;7.50;;;;;;;;;;4181391;28;20053;-85
2022/03/10 09:53:12;;;;;;;15.27;8.38;;;;;;;;;;4181071;28;20406;-85
2022/03/10 09:55:15;;;;;;;14.60;7.75;;;;;;;;;;4181829;28;20045;-84
2022/03/10 09:57:16;;;;;;;14.50;8.10;;;;;;;;;;4182854;28;20041;-87
2022/03/10 09:59:20;;;;;;;14.35;7.63;;;;;;;;;;4181305;28;20456;-84
2022/03/10 10:01:21;;;;;;;15.35;8.80;;;;;;;;;;4182704;28;20495;-85
2022/03/10 10:03:23;;;;;;;15.90;8.13;;;;;;;;;;4182901;28;20037;-85
2022/03/10 10:05:25;;;;;;;13.48;7.80;;;;;;;;;;4183167;28;20041;-84
2022/03/10 10:07:27;;;;;;;16.38;9.02;;;;;;;;;;4178257;28;20382;-84
2022/03/10 10:09:45;;;;;;;13.63;7.40;;;;;;;;;;4180865;28;20056;-85
2022/03/10 10:11:46;;;;;;;17.13;7.88;;;;;;;;;;4182954;28;20106;-85
2022/03/10 10:13:50;;;;;;;12.98;7.13;;;;;;;;;;4182351;28;20049;-84
2022/03/10 10:15:56;;;;;;;17.52;9.00;;;;;;;;;;4181588;28;20049;-84
2022/03/10 10:17:57;;;;;;;16.95;8.13;;;;;;;;;;4182700;28;20487;-85
2022/03/10 10:19:59;;;;;;;11.95;8.05;;;;;;;;;;4181498;28;20048;-85
2022/03/10 10:22:18;;;;;;;12.27;8.30;;;;;;;;;;4182423;28;20089;-84
2022/03/10 10:24:29;;;;;;;16.13;8.23;;;;;;;;;;4181108;28;20048;-84
2022/03/10 10:26:32;;;;;;;12.93;7.22;;;;;;;;;;4181645;28;20103;-84
2022/03/10 10:28:35;;;;;;;12.95;7.13;;;;;;;;;;4181678;28;20442;-85
2022/03/10 10:30:51;;;;;;;15.15;8.00;;;;;;;;;;4163363;28;20041;-85
2022/03/10 10:32:53;;;;;;;12.73;7.32;;;;;;;;;;4170817;28;20118;-85
2022/03/10 10:35:20;;;;;;;12.60;7.13;;;;;;;;;;4179925;28;20052;-85
2022/03/10 10:37:22;;;;;;;12.85;7.43;;;;;;;;;;4177839;28;20053;-85
2022/03/10 10:39:23;;;;;;;12.63;8.52;;;;;;;;;;4180245;28;20578;-82
2022/03/10 10:41:27;;;;;;;14.27;8.35;;;;;;;;;;4187180;28;20399;-85
2022/03/10 10:43:39;;;;;;;13.63;8.90;;;;;;;;;;4179560;28;20052;-84
2022/03/10 10:45:43;;;;;;;12.60;7.68;;;;;;;;;;4181233;28;20036;-85
2022/03/10 10:48:02;;;;;;;18.35;7.72;;;;;;;;;;4180131;28;20052;-86
2022/03/10 10:50:06;;;;;;;13.68;8.52;;;;;;;;;;4178823;28;20041;-86
2022/03/10 10:52:11;;;;;;;14.52;7.45;;;;;;;;;;4181552;28;20037;-85
2022/03/10 10:54:23;;;;;;;14.50;8.77;;;;;;;;;;4179403;28;20044;-84
2022/03/10 10:56:24;;;;;;;13.35;7.72;;;;;;;;;;4179733;28;20049;-85
2022/03/10 10:58:26;;;;;;;13.68;8.15;;;;;;;;;;4178886;28;20052;-84
2022/03/10 11:00:27;;;;;;;12.15;8.20;;;;;;;;;;4179691;28;20394;-85
2022/03/10 11:02:32;;;;;;;15.88;8.43;;;;;;;;;;4180868;28;20071;-84